South Broadway, Washington
Current Conditions -  °F | °C
As of 10:53 PM on Sunday 23 Nov 2014 (Local Time) from KYKM Reporting Station
Clear Clear  
Wind Chill: 34°   Ceiling: Unl
Heat Index: 38°   Visibility: 10mi
Dew Point: 28°   Wind: 5mph
Humidity: 68%   Direction: 300°WNW
Pressure: 30.25"   Gusts: NA
Location:  46.562°N, 120.899°W
Report Text: KYKM 240653Z AUTO 30004KT 10SM CLR 03/M02 A3025 RMK AO2 SLP250 T00331022
Loading
Personal Weather Stations






























Interactive Weather Map New forecast layout! Learn more

10-Day Weather Forecast

Advertisements
Track Severe Weather on mobile